createdAt,value
2023-04-11T00:00:53.312Z,96894.53
2023-04-11T00:02:59.915Z,96881.59
2023-04-11T00:05:03.331Z,96871.56
2023-04-11T00:07:07.660Z,96868.63
2023-04-11T00:09:11.780Z,96866.88
2023-04-11T00:11:14.417Z,96862.84
2023-04-11T00:13:19.647Z,96850.69
2023-04-11T00:15:24.529Z,96838.59
2023-04-11T00:17:31.280Z,96825.56
2023-04-11T00:19:33.902Z,96819.06
2023-04-11T00:21:39.784Z,96816.34
2023-04-11T00:23:42.364Z,96798.94
2023-04-11T00:25:44.892Z,96798.19
2023-04-11T00:27:47.430Z,96786.19
2023-04-11T00:29:49.959Z,96783.00
2023-04-11T00:31:55.497Z,96785.91
2023-04-11T00:33:58.198Z,96775.41
2023-04-11T00:36:00.834Z,96780.66
2023-04-11T00:38:03.974Z,96780.28
2023-04-11T00:40:07.779Z,96773.53
2023-04-11T00:42:10.927Z,96765.44
2023-04-11T00:44:13.849Z,96763.69
2023-04-11T00:46:18.002Z,96765.97
2023-04-11T00:48:22.328Z,96778.59
2023-04-11T00:50:25.013Z,96797.16
2023-04-11T00:52:27.664Z,96799.56
2023-04-11T00:54:31.130Z,96796.59
2023-04-11T00:56:33.743Z,96793.41
2023-04-11T00:58:37.963Z,96786.19
2023-04-11T01:00:41.542Z,96775.31
2023-04-11T01:02:45.301Z,96765.75
2023-04-11T01:04:51.577Z,96762.25
2023-04-11T01:06:59.506Z,96761.91
2023-04-11T01:09:04.793Z,96773.72
2023-04-11T01:11:09.007Z,96767.41
2023-04-11T01:13:12.238Z,96776.56
2023-04-11T01:15:14.946Z,96776.13
2023-04-11T01:17:17.757Z,96773.16
2023-04-11T01:19:22.104Z,96776.53
2023-04-11T01:21:27.077Z,96792.84
2023-04-11T01:23:31.151Z,96769.88
2023-04-11T01:25:33.852Z,96775.69
2023-04-11T01:27:37.725Z,96772.03
2023-04-11T01:29:40.525Z,96770.34
2023-04-11T01:31:43.107Z,96775.97
2023-04-11T01:33:45.879Z,96773.63
2023-04-11T01:35:48.549Z,96767.63
2023-04-11T01:37:51.195Z,96762.13
2023-04-11T01:39:55.249Z,96769.13
2023-04-11T01:41:59.738Z,96769.59
2023-04-11T01:44:02.860Z,96763.69
2023-04-11T01:46:05.753Z,96760.78
2023-04-11T01:48:08.830Z,96767.63
2023-04-11T01:50:12.223Z,96756.75
2023-04-11T01:52:14.771Z,96751.69
2023-04-11T01:54:17.341Z,96753.69
2023-04-11T01:56:24.028Z,96761.66
2023-04-11T01:58:26.594Z,96757.81
2023-04-11T02:00:29.127Z,96754.81
2023-04-11T02:02:31.790Z,96776.94
2023-04-11T02:04:34.534Z,96784.13
2023-04-11T02:06:38.526Z,96784.22
2023-04-11T02:08:41.061Z,96772.69
2023-04-11T02:10:43.605Z,96773.25
2023-04-11T02:12:47.525Z,96769.78
2023-04-11T02:14:50.283Z,96765.59
2023-04-11T02:16:54.219Z,96783.09
2023-04-11T02:18:57.911Z,96782.16
2023-04-11T02:21:00.689Z,96783.41
2023-04-11T02:23:04.412Z,96781.44
2023-04-11T02:25:08.303Z,96799.41
2023-04-11T02:27:11.929Z,96791.06
2023-04-11T02:29:15.980Z,96795.09
2023-04-11T02:31:18.586Z,96806.03
2023-04-11T02:33:21.267Z,96817.59
2023-04-11T02:35:23.788Z,96803.91
2023-04-11T02:37:26.767Z,96804.34
2023-04-11T02:39:29.752Z,96807.25
2023-04-11T02:41:32.268Z,96804.06
2023-04-11T02:43:34.815Z,96810.22
2023-04-11T02:45:38.732Z,96820.53
2023-04-11T02:47:41.327Z,96815.19
2023-04-11T02:49:43.979Z,96809.28
2023-04-11T02:51:49.039Z,96812.16
2023-04-11T02:53:54.297Z,96814.91
2023-04-11T02:55:56.837Z,96815.38
2023-04-11T02:57:59.393Z,96816.53
2023-04-11T03:00:02.009Z,96822.44
2023-04-11T03:02:06.079Z,96816.63
2023-04-11T03:04:08.722Z,96818.00
2023-04-11T03:06:11.632Z,96815.47
2023-04-11T03:08:14.192Z,96810.75
2023-04-11T03:10:16.805Z,96830.69
2023-04-11T03:12:20.075Z,96821.88
2023-04-11T03:14:22.620Z,96826.25
2023-04-11T03:16:25.505Z,96829.47
2023-04-11T03:18:29.441Z,96839.34
2023-04-11T03:20:32.005Z,96841.47
2023-04-11T03:22:34.596Z,96856.16
2023-04-11T03:24:39.250Z,96848.91
2023-04-11T03:26:41.807Z,96852.75
2023-04-11T03:28:44.336Z,96862.78
2023-04-11T03:30:48.747Z,96870.09
2023-04-11T03:32:52.974Z,96853.81
2023-04-11T03:34:57.969Z,96851.56
2023-04-11T03:37:00.494Z,96841.84
2023-04-11T03:39:03.771Z,96848.22
2023-04-11T03:41:06.954Z,96850.25
2023-04-11T03:43:09.519Z,96841.06
2023-04-11T03:45:12.132Z,96835.63
2023-04-11T03:47:17.541Z,96826.88
2023-04-11T03:49:20.087Z,96827.47
2023-04-11T03:51:24.014Z,96838.38
2023-04-11T03:53:26.569Z,96834.56
2023-04-11T03:55:29.409Z,96836.31
2023-04-11T03:57:32.293Z,96854.44
2023-04-11T03:59:34.862Z,96858.66
2023-04-11T04:01:38.490Z,96867.25
2023-04-11T04:03:41.370Z,96858.84
2023-04-11T04:05:44.071Z,96862.09
2023-04-11T04:07:47.983Z,96865.97
2023-04-11T04:09:50.753Z,96853.78
2023-04-11T04:11:53.313Z,96855.72
2023-04-11T04:13:56.082Z,96849.72
2023-04-11T04:16:00.662Z,96858.50
2023-04-11T04:18:04.736Z,96863.72
2023-04-11T04:20:09.368Z,96859.44
2023-04-11T04:22:13.254Z,96853.72
2023-04-11T04:24:17.458Z,96854.13
2023-04-11T04:26:25.084Z,96841.97
2023-04-11T04:28:27.883Z,96855.88
2023-04-11T04:30:30.408Z,96870.72
2023-04-11T04:32:32.995Z,96866.25
2023-04-11T04:34:35.559Z,96871.66
2023-04-11T04:36:46.324Z,96870.78
2023-04-11T04:38:48.863Z,96875.94
2023-04-11T04:40:54.715Z,96880.25
2023-04-11T04:42:59.052Z,96873.81
2023-04-11T04:45:01.651Z,96883.22
2023-04-11T04:47:04.213Z,96897.41
2023-04-11T04:49:07.707Z,96888.25
2023-04-11T04:51:10.345Z,96896.72
2023-04-11T04:53:12.905Z,96908.00
2023-04-11T04:55:15.599Z,96913.81
2023-04-11T04:57:19.545Z,96939.63
2023-04-11T04:59:22.065Z,96944.28
2023-04-11T05:01:26.848Z,96936.59
2023-04-11T05:03:30.407Z,96933.22
2023-04-11T05:05:33.121Z,96946.03
2023-04-11T05:07:36.179Z,96952.03
2023-04-11T05:09:38.707Z,96951.66
2023-04-11T05:11:41.261Z,96956.50
2023-04-11T05:13:45.178Z,96966.34
2023-04-11T05:15:51.285Z,96982.41
2023-04-11T05:17:53.852Z,96992.28
2023-04-11T05:19:56.468Z,97001.94
2023-04-11T05:21:59.915Z,97009.84
2023-04-11T05:24:02.454Z,97018.66
2023-04-11T05:26:05.350Z,97025.53
2023-04-11T05:28:07.961Z,97025.38
2023-04-11T05:30:13.257Z,97027.53
2023-04-11T05:32:15.890Z,97033.69
2023-04-11T05:34:18.546Z,97037.78
2023-04-11T05:36:21.209Z,97044.56
2023-04-11T05:38:23.726Z,97053.75
2023-04-11T05:40:26.298Z,97051.03
2023-04-11T05:42:28.861Z,97060.13
2023-04-11T05:44:31.391Z,97073.88
2023-04-11T05:46:37.000Z,97066.00
2023-04-11T05:48:39.699Z,97071.25
2023-04-11T05:50:42.419Z,97075.59
2023-04-11T05:52:44.987Z,97072.63
2023-04-11T05:54:47.557Z,97070.06
2023-04-11T05:56:50.108Z,97075.09
2023-04-11T05:58:53.114Z,97073.31
2023-04-11T06:00:55.647Z,97067.72
2023-04-11T06:03:00.195Z,97067.69
2023-04-11T06:05:03.902Z,97064.94
2023-04-11T06:07:07.632Z,97059.78
2023-04-11T06:09:10.870Z,97063.09
2023-04-11T06:11:13.450Z,97060.34
2023-04-11T06:13:16.041Z,97064.25
2023-04-11T06:15:18.787Z,97059.19
2023-04-11T06:17:21.417Z,97066.94
2023-04-11T06:19:25.314Z,97074.19
2023-04-11T06:21:27.837Z,97071.19
2023-04-11T06:23:30.406Z,97079.19
2023-04-11T06:25:32.944Z,97076.13
2023-04-11T06:27:35.604Z,97069.09
2023-04-11T06:29:38.326Z,97077.53
2023-04-11T06:31:41.418Z,97083.16
2023-04-11T06:33:44.086Z,97087.03
2023-04-11T06:35:47.980Z,97083.81
2023-04-11T06:37:50.521Z,97080.53
2023-04-11T06:39:53.117Z,97088.03
2023-04-11T06:41:56.435Z,97086.34
2023-04-11T06:43:59.206Z,97094.72
2023-04-11T06:46:01.975Z,97097.34
2023-04-11T06:48:04.925Z,97098.59
2023-04-11T06:50:08.893Z,97098.94
2023-04-11T06:52:12.820Z,97113.16
2023-04-11T06:54:15.520Z,97115.53
2023-04-11T06:56:18.059Z,97116.44
2023-04-11T06:58:20.665Z,97112.91
2023-04-11T07:00:23.399Z,97109.22
2023-04-11T07:02:26.379Z,97116.72
2023-04-11T07:04:29.214Z,97113.28
2023-04-11T07:06:32.480Z,97099.31
2023-04-11T07:08:36.781Z,97098.25
2023-04-11T07:10:39.304Z,97097.94
2023-04-11T07:12:41.828Z,97093.66
2023-04-11T07:14:44.437Z,97092.28
2023-04-11T07:16:46.979Z,97096.84
2023-04-11T07:18:49.832Z,97082.19
2023-04-11T07:20:52.727Z,97102.50
2023-04-11T07:22:56.643Z,97099.81
2023-04-11T07:25:00.504Z,97101.03
2023-04-11T07:27:03.089Z,97107.13
2023-04-11T07:29:07.239Z,97113.72
2023-04-11T07:31:13.795Z,97113.34
2023-04-11T07:33:16.416Z,97109.88
2023-04-11T07:35:18.986Z,97110.25
2023-04-11T07:37:21.508Z,97125.28
2023-04-11T07:39:24.096Z,97120.16
2023-04-11T07:41:28.057Z,97123.94
2023-04-11T07:43:31.232Z,97126.31
2023-04-11T07:45:34.335Z,97122.50
2023-04-11T07:47:36.936Z,97127.91
2023-04-11T07:49:39.494Z,97130.19
2023-04-11T07:51:42.039Z,97133.84
2023-04-11T07:53:44.608Z,97130.25
2023-04-11T07:55:47.182Z,97136.00
2023-04-11T07:57:51.106Z,97133.38
2023-04-11T07:59:53.647Z,97162.88
2023-04-11T08:02:00.871Z,97148.38
2023-04-11T08:04:04.010Z,97134.97
2023-04-11T08:06:07.712Z,97143.44
2023-04-11T08:08:10.497Z,97140.97
2023-04-11T08:10:13.076Z,97145.16
2023-04-11T08:12:16.601Z,97150.16
2023-04-11T08:14:20.580Z,97146.59
2023-04-11T08:16:23.230Z,97144.53
2023-04-11T08:18:25.963Z,97159.09
2023-04-11T08:20:28.682Z,97166.09
2023-04-11T08:22:33.079Z,97171.31
2023-04-11T08:24:35.643Z,97175.16
2023-04-11T08:26:38.205Z,97167.41
2023-04-11T08:28:42.820Z,97163.72
2023-04-11T08:30:47.544Z,97177.19
2023-04-11T08:32:50.219Z,97169.53
2023-04-11T08:34:52.755Z,97169.66
2023-04-11T08:36:55.297Z,97175.97
2023-04-11T08:39:00.061Z,97182.72
2023-04-11T08:41:02.593Z,97178.59
2023-04-11T08:43:10.051Z,97179.31
2023-04-11T08:45:13.316Z,97166.25
2023-04-11T08:47:17.646Z,97170.34
2023-04-11T08:49:20.201Z,97156.84
2023-04-11T08:51:27.573Z,97171.91
2023-04-11T08:53:31.516Z,97165.97
2023-04-11T08:55:34.086Z,97167.13
2023-04-11T08:57:39.071Z,97167.22
2023-04-11T08:59:49.843Z,97160.22
2023-04-11T09:01:52.654Z,97165.03
2023-04-11T09:03:57.429Z,97163.13
2023-04-11T09:06:10.236Z,97161.81
2023-04-11T09:08:14.401Z,97159.00
2023-04-11T09:10:21.339Z,97160.03
2023-04-11T09:12:30.737Z,97154.94
2023-04-11T09:14:33.581Z,97155.63
2023-04-11T09:16:36.744Z,97148.94
2023-04-11T09:18:40.602Z,97157.28
2023-04-11T09:20:44.561Z,97163.47
2023-04-11T09:22:50.282Z,97156.31
2023-04-11T09:25:03.499Z,97170.53
2023-04-11T09:27:13.602Z,97159.97
2023-04-11T09:29:36.837Z,97157.09
2023-04-11T09:31:42.269Z,97147.09
2023-04-11T09:33:57.144Z,97163.25
2023-04-11T09:36:02.584Z,97143.41
2023-04-11T09:38:09.222Z,97160.50
2023-04-11T09:40:12.456Z,97138.78
2023-04-11T09:42:25.096Z,97145.91
2023-04-11T09:44:37.338Z,97152.56
2023-04-11T09:46:57.333Z,97148.16
2023-04-11T09:49:01.517Z,97141.72
2023-04-11T09:51:07.815Z,97151.13
2023-04-11T09:53:11.540Z,97151.06
2023-04-11T09:55:16.288Z,97148.06
2023-04-11T09:57:20.339Z,97150.38
2023-04-11T09:59:24.047Z,97159.91
2023-04-11T10:01:27.271Z,97164.34
2023-04-11T10:03:34.614Z,97160.06
2023-04-11T10:05:39.589Z,97164.72
2023-04-11T10:07:54.994Z,97163.50
2023-04-11T10:09:57.647Z,97164.09
2023-04-11T10:12:00.427Z,97157.56
2023-04-11T10:14:03.064Z,97158.75
2023-04-11T10:16:10.175Z,97157.19
2023-04-11T10:18:13.740Z,97165.94
2023-04-11T10:20:47.184Z,97169.69
2023-04-11T10:23:01.455Z,97180.03
2023-04-11T10:25:16.516Z,97191.44
2023-04-11T10:27:48.859Z,97197.31
2023-04-11T10:29:53.030Z,97198.09
2023-04-11T10:32:11.529Z,97182.78
2023-04-11T10:34:15.364Z,97188.69
2023-04-11T10:36:18.515Z,97194.50
2023-04-11T10:38:51.382Z,97188.66
2023-04-11T10:41:26.282Z,97180.13
2023-04-11T10:43:28.965Z,97176.06
2023-04-11T10:45:32.341Z,97177.25
2023-04-11T10:47:35.076Z,97174.19
2023-04-11T10:49:39.311Z,97160.47
2023-04-11T10:51:42.020Z,97151.69
2023-04-11T10:53:47.246Z,97165.78
2023-04-11T10:55:51.912Z,97159.44
2023-04-11T10:58:08.057Z,97171.84
2023-04-11T11:00:14.365Z,97161.28
2023-04-11T11:02:19.431Z,97164.88
2023-04-11T11:04:32.081Z,97169.81
2023-04-11T11:06:46.245Z,97161.97
2023-04-11T11:08:49.781Z,97163.41
2023-04-11T11:10:54.179Z,97160.94
2023-04-11T11:12:57.177Z,97162.16
2023-04-11T11:14:59.731Z,97167.59
2023-04-11T11:17:03.064Z,97169.53
2023-04-11T11:19:06.363Z,97156.78
2023-04-11T11:21:14.042Z,97164.88
2023-04-11T11:23:19.749Z,97166.72
2023-04-11T11:25:22.316Z,97174.78
2023-04-11T11:27:26.307Z,97167.19
2023-04-11T11:29:32.833Z,97159.34
2023-04-11T11:31:37.733Z,97151.22
2023-04-11T11:33:41.516Z,97159.75
2023-04-11T11:35:46.962Z,97163.28
2023-04-11T11:37:52.017Z,97172.25
2023-04-11T11:39:54.902Z,97170.81
2023-04-11T11:41:58.098Z,97158.19
2023-04-11T11:44:02.302Z,97166.13
2023-04-11T11:46:09.900Z,97154.44
2023-04-11T11:48:21.290Z,97145.88
2023-04-11T11:50:28.862Z,97172.25
2023-04-11T11:52:33.678Z,97153.81
2023-04-11T11:54:44.342Z,97178.72
2023-04-11T11:56:52.427Z,97171.00
2023-04-11T11:58:55.274Z,97164.97
2023-04-11T12:00:59.452Z,97169.59
2023-04-11T12:03:03.544Z,97167.06
2023-04-11T12:05:07.867Z,97161.59
2023-04-11T12:07:12.089Z,97178.75
2023-04-11T12:09:14.635Z,97176.16
2023-04-11T12:11:18.304Z,97171.66
2023-04-11T12:13:22.611Z,97164.22
2023-04-11T12:15:25.583Z,97162.28
2023-04-11T12:17:36.288Z,97168.91
2023-04-11T12:19:43.167Z,97164.38
2023-04-11T12:21:45.800Z,97171.06
2023-04-11T12:23:48.331Z,97163.13
2023-04-11T12:25:51.151Z,97161.75
2023-04-11T12:27:53.964Z,97157.44
2023-04-11T12:29:56.775Z,97175.59
2023-04-11T12:31:59.313Z,97163.75
2023-04-11T12:34:03.314Z,97159.91
2023-04-11T12:36:07.750Z,97166.91
2023-04-11T12:38:11.936Z,97157.91
2023-04-11T12:40:17.907Z,97172.22
2023-04-11T12:42:23.827Z,97166.50
2023-04-11T12:44:29.166Z,97167.03
2023-04-11T12:46:33.566Z,97157.41
2023-04-11T12:48:36.589Z,97163.25
2023-04-11T12:50:40.858Z,97157.09
2023-04-11T12:52:43.426Z,97161.56
2023-04-11T12:54:48.808Z,97155.66
2023-04-11T12:56:51.346Z,97163.72
2023-04-11T12:58:53.953Z,97167.47
2023-04-11T13:00:56.648Z,97159.94
2023-04-11T13:02:59.522Z,97169.97
2023-04-11T13:05:08.653Z,97167.16
2023-04-11T13:07:12.592Z,97168.91
2023-04-11T13:09:15.632Z,97175.28
2023-04-11T13:11:18.184Z,97146.72
2023-04-11T13:13:20.826Z,97153.97
2023-04-11T13:15:23.407Z,97147.91
2023-04-11T13:17:25.982Z,97148.41
2023-04-11T13:19:28.567Z,97153.97
2023-04-11T13:21:31.615Z,97153.44
2023-04-11T13:23:36.130Z,97151.66
2023-04-11T13:25:38.679Z,97145.72
2023-04-11T13:27:42.067Z,97144.44
2023-04-11T13:29:44.671Z,97154.91
2023-04-11T13:31:47.237Z,97140.34
2023-04-11T13:33:49.808Z,97151.09
2023-04-11T13:35:52.366Z,97146.06
2023-04-11T13:37:54.904Z,97148.41
2023-04-11T13:39:58.802Z,97148.31
2023-04-11T13:42:01.359Z,97146.59
2023-04-11T13:44:03.937Z,97137.69
2023-04-11T13:46:06.876Z,97133.03
2023-04-11T13:48:09.502Z,97129.09
2023-04-11T13:50:12.248Z,97134.44
2023-04-11T13:52:14.863Z,97137.81
2023-04-11T13:54:17.611Z,97139.56
2023-04-11T13:56:21.528Z,97144.59
2023-04-11T13:58:24.062Z,97125.25
2023-04-11T14:00:26.724Z,97133.31
2023-04-11T14:02:29.352Z,97139.25
2023-04-11T14:04:32.171Z,97134.00
2023-04-11T14:06:35.360Z,97129.53
2023-04-11T14:08:38.121Z,97126.13
2023-04-11T14:10:44.214Z,97128.56
2023-04-11T14:12:48.498Z,97133.75
2023-04-11T14:14:51.090Z,97125.69
2023-04-11T14:16:54.001Z,97125.31
2023-04-11T14:18:56.856Z,97128.59
2023-04-11T14:21:01.642Z,97123.72
2023-04-11T14:23:04.296Z,97121.75
2023-04-11T14:25:10.419Z,97113.94
2023-04-11T14:27:12.951Z,97109.06
2023-04-11T14:29:17.540Z,97112.81
2023-04-11T14:31:20.142Z,97103.84
2023-04-11T14:33:23.007Z,97100.50
2023-04-11T14:35:26.192Z,97109.69
2023-04-11T14:37:28.720Z,97112.91
2023-04-11T14:39:31.641Z,97113.13
2023-04-11T14:41:34.207Z,97113.97
2023-04-11T14:43:36.954Z,97112.50
2023-04-11T14:45:41.204Z,97115.97
2023-04-11T14:47:43.836Z,97110.00
2023-04-11T14:49:46.664Z,97116.19
2023-04-11T14:51:49.216Z,97103.91
2023-04-11T14:53:55.164Z,97113.88
2023-04-11T14:55:58.055Z,97120.38
2023-04-11T14:58:00.696Z,97112.91
2023-04-11T15:00:06.440Z,97119.31
2023-04-11T15:02:10.713Z,97118.47
2023-04-11T15:04:13.422Z,97116.59
2023-04-11T15:06:16.220Z,97112.56
2023-04-11T15:08:18.758Z,97114.22
2023-04-11T15:10:23.342Z,97118.38
2023-04-11T15:12:25.990Z,97109.25
2023-04-11T15:14:30.178Z,97098.84
2023-04-11T15:16:32.827Z,97103.25
2023-04-11T15:18:36.788Z,97104.75
2023-04-11T15:20:39.466Z,97102.88
2023-04-11T15:22:43.550Z,97103.50
2023-04-11T15:24:46.086Z,97102.97
2023-04-11T15:26:48.656Z,97099.66
2023-04-11T15:28:51.233Z,97098.75
2023-04-11T15:30:55.300Z,97108.22
2023-04-11T15:32:58.565Z,97104.75
2023-04-11T15:35:02.833Z,97096.22
2023-04-11T15:37:11.277Z,97096.78
2023-04-11T15:39:13.873Z,97097.81
2023-04-11T15:41:16.442Z,97096.66
2023-04-11T15:43:19.376Z,97104.34
2023-04-11T15:45:22.135Z,97101.09
2023-04-11T15:47:24.715Z,97095.91
2023-04-11T15:49:27.259Z,97108.16
2023-04-11T15:51:31.209Z,97090.63
2023-04-11T15:53:33.742Z,97089.50
2023-04-11T15:55:39.640Z,97092.41
2023-04-11T15:57:42.222Z,97087.94
2023-04-11T15:59:44.896Z,97091.81
2023-04-11T16:01:47.519Z,97089.09
2023-04-11T16:03:51.536Z,97088.88
2023-04-11T16:05:54.276Z,97082.94
2023-04-11T16:07:58.266Z,97079.31
2023-04-11T16:10:00.806Z,97080.75
2023-04-11T16:12:03.510Z,97076.78
2023-04-11T16:14:06.319Z,97084.84
2023-04-11T16:16:10.454Z,97083.97
2023-04-11T16:18:13.087Z,97086.38
2023-04-11T16:20:18.444Z,97082.81
2023-04-11T16:22:21.165Z,97074.66
2023-04-11T16:24:25.882Z,97069.94
2023-04-11T16:26:28.461Z,97074.31
2023-04-11T16:28:31.002Z,97069.97
2023-04-11T16:30:34.481Z,97065.28
2023-04-11T16:32:37.063Z,97058.09
2023-04-11T16:34:39.985Z,97058.47
2023-04-11T16:36:42.623Z,97056.66
2023-04-11T16:38:45.161Z,97048.22
2023-04-11T16:40:49.091Z,97065.78
2023-04-11T16:42:51.698Z,97049.59
2023-04-11T16:44:54.281Z,97063.47
2023-04-11T16:46:56.829Z,97059.06
2023-04-11T16:49:00.188Z,97059.72
2023-04-11T16:51:02.952Z,97063.47
2023-04-11T16:53:05.506Z,97059.59
2023-04-11T16:55:08.639Z,97066.09
2023-04-11T16:57:12.574Z,97062.69
2023-04-11T16:59:15.923Z,97062.69
2023-04-11T17:01:18.539Z,97052.84
2023-04-11T17:03:21.741Z,97059.41
2023-04-11T17:05:24.888Z,97052.22
2023-04-11T17:07:28.452Z,97049.91
2023-04-11T17:09:31.541Z,97043.44
2023-04-11T17:11:36.790Z,97046.31
2023-04-11T17:13:45.120Z,97046.50
2023-04-11T17:15:47.677Z,97043.78
2023-04-11T17:17:50.666Z,97040.31
2023-04-11T17:19:53.443Z,97038.09
2023-04-11T17:21:57.393Z,97040.72
2023-04-11T17:24:00.080Z,97037.28
2023-04-11T17:26:03.224Z,97037.09
2023-04-11T17:28:06.191Z,97027.13
2023-04-11T17:30:12.085Z,97037.88
2023-04-11T17:32:14.651Z,97040.13
2023-04-11T17:34:17.201Z,97044.16
2023-04-11T17:36:19.824Z,97044.44
2023-04-11T17:38:22.362Z,97044.84
2023-04-11T17:40:24.961Z,97040.28
2023-04-11T17:42:27.521Z,97026.00
2023-04-11T17:44:30.690Z,97028.94
2023-04-11T17:46:35.473Z,97034.19
2023-04-11T17:48:38.082Z,97032.72
2023-04-11T17:50:40.864Z,97030.59
2023-04-11T17:52:45.170Z,97029.22
2023-04-11T17:54:47.983Z,97034.22
2023-04-11T17:56:50.616Z,97031.28
2023-04-11T17:58:53.593Z,97036.53
2023-04-11T18:00:57.225Z,97033.00
2023-04-11T18:03:02.903Z,97033.16
2023-04-11T18:05:13.293Z,97034.88
2023-04-11T18:07:25.612Z,97037.31
2023-04-11T18:09:31.723Z,97043.63
2023-04-11T18:11:34.279Z,97038.66
2023-04-11T18:13:36.895Z,97032.09
2023-04-11T18:15:39.489Z,97027.84
2023-04-11T18:17:42.452Z,97035.41
2023-04-11T18:19:46.428Z,97029.03
2023-04-11T18:21:50.523Z,97031.03
2023-04-11T18:23:53.397Z,97026.81
2023-04-11T18:25:55.958Z,97027.72
2023-04-11T18:27:58.528Z,97025.44
2023-04-11T18:30:02.136Z,97032.97
2023-04-11T18:32:04.729Z,97029.53
2023-04-11T18:34:08.298Z,97034.97
2023-04-11T18:36:12.973Z,97030.84
2023-04-11T18:38:16.245Z,97032.06
2023-04-11T18:40:19.527Z,97027.97
2023-04-11T18:42:22.185Z,97037.72
2023-04-11T18:44:27.185Z,97038.72
2023-04-11T18:46:34.334Z,97043.94
2023-04-11T18:48:38.090Z,97047.41
2023-04-11T18:50:42.863Z,97051.81
2023-04-11T18:52:51.192Z,97051.66
2023-04-11T18:54:56.485Z,97054.91
2023-04-11T18:56:59.686Z,97061.38
2023-04-11T18:59:05.504Z,97050.94
2023-04-11T19:01:16.576Z,97056.16
2023-04-11T19:03:20.795Z,97057.28
2023-04-11T19:05:25.555Z,97043.78
2023-04-11T19:07:28.377Z,97040.31
2023-04-11T19:09:32.787Z,97040.53
2023-04-11T19:11:38.416Z,97043.69
2023-04-11T19:13:41.158Z,97049.00
2023-04-11T19:15:43.831Z,97054.94
2023-04-11T19:17:47.376Z,97045.94
2023-04-11T19:19:51.970Z,97043.38
2023-04-11T19:21:54.537Z,97034.78
2023-04-11T19:23:57.567Z,97034.78
2023-04-11T19:26:02.254Z,97033.75
2023-04-11T19:28:05.196Z,97027.50
2023-04-11T19:30:10.439Z,97031.75
2023-04-11T19:32:13.163Z,97037.59
2023-04-11T19:34:16.109Z,97038.91
2023-04-11T19:36:19.163Z,97038.34
2023-04-11T19:38:22.213Z,97035.97
2023-04-11T19:40:25.228Z,97026.38
2023-04-11T19:42:30.701Z,97024.72
2023-04-11T19:44:33.678Z,97014.91
2023-04-11T19:46:36.682Z,97010.81
2023-04-11T19:48:39.924Z,97003.00
2023-04-11T19:50:42.564Z,97006.59
2023-04-11T19:52:47.972Z,96997.22
2023-04-11T19:54:50.594Z,96997.22
2023-04-11T19:56:53.522Z,97005.13
2023-04-11T19:58:59.641Z,97004.69
2023-04-11T20:01:02.537Z,97001.56
2023-04-11T20:03:07.575Z,96997.34
2023-04-11T20:05:10.836Z,96996.50
2023-04-11T20:07:13.395Z,96993.09
2023-04-11T20:09:15.944Z,96983.59
2023-04-11T20:11:20.272Z,96988.09
2023-04-11T20:13:22.841Z,96986.44
2023-04-11T20:15:26.934Z,96981.13
2023-04-11T20:17:29.535Z,96978.53
2023-04-11T20:19:33.156Z,96984.53
2023-04-11T20:21:35.701Z,96977.44
2023-04-11T20:23:39.194Z,96985.19
2023-04-11T20:25:42.249Z,96984.84
2023-04-11T20:27:44.791Z,96981.69
2023-04-11T20:29:47.324Z,96972.38
2023-04-11T20:31:51.269Z,96970.75
2023-04-11T20:33:54.991Z,96966.44
2023-04-11T20:35:57.717Z,96967.38
2023-04-11T20:38:00.275Z,96961.28
2023-04-11T20:40:03.582Z,96964.69
2023-04-11T20:42:10.583Z,96961.03
2023-04-11T20:44:16.855Z,96954.88
2023-04-11T20:46:21.649Z,96956.22
2023-04-11T20:48:25.816Z,96955.72
2023-04-11T20:50:30.788Z,96951.50
2023-04-11T20:52:33.526Z,96954.31
2023-04-11T20:54:36.120Z,96947.47
2023-04-11T20:56:38.992Z,96948.25
2023-04-11T20:58:41.646Z,96944.06
2023-04-11T21:00:44.430Z,96934.97
2023-04-11T21:02:49.945Z,96938.16
2023-04-11T21:04:54.569Z,96941.84
2023-04-11T21:06:57.640Z,96930.19
2023-04-11T21:09:01.012Z,96935.53
2023-04-11T21:11:03.619Z,96924.63
2023-04-11T21:13:06.383Z,96928.50
2023-04-11T21:15:10.305Z,96925.03
2023-04-11T21:17:13.214Z,96925.88
2023-04-11T21:19:15.793Z,96922.34
2023-04-11T21:21:19.673Z,96920.03
2023-04-11T21:23:22.571Z,96908.09
2023-04-11T21:25:25.240Z,96908.31
2023-04-11T21:27:27.807Z,96909.03
2023-04-11T21:29:30.380Z,96903.19
2023-04-11T21:31:32.974Z,96893.63
2023-04-11T21:33:35.578Z,96899.72
2023-04-11T21:35:38.157Z,96891.19
2023-04-11T21:37:42.101Z,96896.31
2023-04-11T21:39:44.671Z,96889.34
2023-04-11T21:41:47.228Z,96878.13
2023-04-11T21:43:49.763Z,96879.88
2023-04-11T21:45:52.359Z,96878.22
2023-04-11T21:47:55.044Z,96878.00
2023-04-11T21:49:57.650Z,96872.50
2023-04-11T21:52:00.397Z,96861.56
2023-04-11T21:54:06.349Z,96856.78
2023-04-11T21:56:09.987Z,96851.50
2023-04-11T21:58:25.897Z,96840.22
2023-04-11T22:00:31.531Z,96835.00
2023-04-11T22:02:34.290Z,96821.03
2023-04-11T22:04:47.516Z,96821.72
2023-04-11T22:06:58.786Z,96814.75
2023-04-11T22:09:03.212Z,96806.03
2023-04-11T22:11:10.152Z,96810.38
2023-04-11T22:13:15.821Z,96801.56
2023-04-11T22:15:18.831Z,96802.34
2023-04-11T22:17:22.203Z,96803.97
2023-04-11T22:19:24.967Z,96796.84
2023-04-11T22:21:31.849Z,96800.28
2023-04-11T22:23:35.882Z,96802.88
2023-04-11T22:25:38.712Z,96807.28
2023-04-11T22:27:44.579Z,96803.75
2023-04-11T22:29:47.136Z,96807.44
2023-04-11T22:31:50.383Z,96803.13
2023-04-11T22:33:53.134Z,96803.25
2023-04-11T22:35:58.244Z,96802.13
2023-04-11T22:38:00.854Z,96797.66
2023-04-11T22:40:06.107Z,96799.44
2023-04-11T22:42:08.665Z,96794.75
2023-04-11T22:44:12.552Z,96787.69
2023-04-11T22:46:15.347Z,96782.47
2023-04-11T22:48:18.006Z,96781.03
2023-04-11T22:50:21.413Z,96774.19
2023-04-11T22:52:25.840Z,96774.34
2023-04-11T22:54:28.945Z,96779.47
2023-04-11T22:56:31.527Z,96772.75
2023-04-11T22:58:34.106Z,96773.22
2023-04-11T23:00:38.369Z,96774.44
2023-04-11T23:02:41.194Z,96770.53
2023-04-11T23:04:44.482Z,96762.50
2023-04-11T23:06:49.396Z,96754.78
2023-04-11T23:08:54.025Z,96762.25
2023-04-11T23:10:56.577Z,96760.72
2023-04-11T23:12:59.136Z,96758.03
2023-04-11T23:15:02.505Z,96758.63
2023-04-11T23:17:06.599Z,96757.13
2023-04-11T23:19:09.916Z,96764.41
2023-04-11T23:21:14.297Z,96763.53
2023-04-11T23:23:16.943Z,96752.19
2023-04-11T23:25:19.850Z,96749.44
2023-04-11T23:27:22.757Z,96757.59
2023-04-11T23:29:25.846Z,96752.72
2023-04-11T23:31:28.491Z,96753.50
2023-04-11T23:33:32.483Z,96754.59
2023-04-11T23:35:35.394Z,96753.41
2023-04-11T23:37:38.009Z,96749.28
2023-04-11T23:39:41.004Z,96745.97
2023-04-11T23:41:44.586Z,96737.84
2023-04-11T23:43:47.232Z,96739.75
2023-04-11T23:45:49.847Z,96737.16
2023-04-11T23:47:52.998Z,96736.25
2023-04-11T23:49:56.923Z,96731.81
2023-04-11T23:51:59.512Z,96729.81
2023-04-11T23:54:02.425Z,96735.25
2023-04-11T23:56:05.504Z,96729.94
2023-04-11T23:58:08.081Z,96722.75
